sensor_id;sensor_type;location;lat;lon;timestamp;temperature;humidity
20246;DHT22;10281;54.406;18.556;2024-02-23T00:00:29;8.70;99.90
20246;DHT22;10281;54.406;18.556;2024-02-23T00:02:55;8.70;99.90
20246;DHT22;10281;54.406;18.556;2024-02-23T00:05:24;8.60;99.90
20246;DHT22;10281;54.406;18.556;2024-02-23T00:07:50;8.60;99.90
20246;DHT22;10281;54.406;18.556;2024-02-23T00:10:17;8.60;99.90
20246;DHT22;10281;54.406;18.556;2024-02-23T00:12:44;8.60;99.90
20246;DHT22;10281;54.406;18.556;2024-02-23T00:15:10;8.60;99.90
20246;DHT22;10281;54.406;18.556;2024-02-23T00:17:38;8.60;99.90
20246;DHT22;10281;54.406;18.556;2024-02-23T00:20:08;8.60;99.90
20246;DHT22;10281;54.406;18.556;2024-02-23T00:22:38;8.60;99.90
20246;DHT22;10281;54.406;18.556;2024-02-23T00:25:05;8.70;99.90
20246;DHT22;10281;54.406;18.556;2024-02-23T00:27:32;8.60;99.90
20246;DHT22;10281;54.406;18.556;2024-02-23T00:29:59;8.70;99.90
20246;DHT22;10281;54.406;18.556;2024-02-23T00:32:26;8.60;99.90
20246;DHT22;10281;54.406;18.556;2024-02-23T00:34:53;8.60;99.90
20246;DHT22;10281;54.406;18.556;2024-02-23T00:37:19;8.60;99.90
20246;DHT22;10281;54.406;18.556;2024-02-23T00:39:46;8.60;99.90
20246;DHT22;10281;54.406;18.556;2024-02-23T00:42:12;8.60;99.90
20246;DHT22;10281;54.406;18.556;2024-02-23T00:44:39;8.70;99.90
20246;DHT22;10281;54.406;18.556;2024-02-23T00:47:06;8.70;99.90
20246;DHT22;10281;54.406;18.556;2024-02-23T00:49:32;8.70;99.90
20246;DHT22;10281;54.406;18.556;2024-02-23T00:51:59;8.70;99.90
20246;DHT22;10281;54.406;18.556;2024-02-23T00:54:26;8.70;99.90
20246;DHT22;10281;54.406;18.556;2024-02-23T00:56:52;8.70;99.90
20246;DHT22;10281;54.406;18.556;2024-02-23T00:59:19;8.70;99.90
20246;DHT22;10281;54.406;18.556;2024-02-23T01:01:46;8.70;99.90
20246;DHT22;10281;54.406;18.556;2024-02-23T01:04:13;8.70;99.90
20246;DHT22;10281;54.406;18.556;2024-02-23T01:06:40;8.70;99.90
20246;DHT22;10281;54.406;18.556;2024-02-23T01:09:07;8.70;99.90
20246;DHT22;10281;54.406;18.556;2024-02-23T01:11:34;8.70;99.90
20246;DHT22;10281;54.406;18.556;2024-02-23T01:14:00;8.70;99.90
20246;DHT22;10281;54.406;18.556;2024-02-23T01:16:27;8.70;99.90
20246;DHT22;10281;54.406;18.556;2024-02-23T01:18:53;8.70;99.90
20246;DHT22;10281;54.406;18.556;2024-02-23T01:21:20;8.70;99.90
20246;DHT22;10281;54.406;18.556;2024-02-23T01:23:47;8.70;99.90
20246;DHT22;10281;54.406;18.556;2024-02-23T01:26:13;8.70;99.90
20246;DHT22;10281;54.406;18.556;2024-02-23T01:28:40;8.70;99.90
20246;DHT22;10281;54.406;18.556;2024-02-23T01:31:09;8.70;99.90
20246;DHT22;10281;54.406;18.556;2024-02-23T01:33:37;8.80;99.90
20246;DHT22;10281;54.406;18.556;2024-02-23T01:36:05;8.80;99.90
20246;DHT22;10281;54.406;18.556;2024-02-23T01:38:32;8.80;99.90
20246;DHT22;10281;54.406;18.556;2024-02-23T01:40:59;8.80;99.90
20246;DHT22;10281;54.406;18.556;2024-02-23T01:43:26;8.80;99.90
20246;DHT22;10281;54.406;18.556;2024-02-23T01:45:54;8.70;99.90
20246;DHT22;10281;54.406;18.556;2024-02-23T01:48:20;8.70;99.90
20246;DHT22;10281;54.406;18.556;2024-02-23T01:50:48;8.70;99.90
20246;DHT22;10281;54.406;18.556;2024-02-23T01:53:14;8.70;99.90
20246;DHT22;10281;54.406;18.556;2024-02-23T01:55:42;8.70;99.90
20246;DHT22;10281;54.406;18.556;2024-02-23T01:58:09;8.70;99.90
20246;DHT22;10281;54.406;18.556;2024-02-23T02:00:36;8.60;99.90
20246;DHT22;10281;54.406;18.556;2024-02-23T02:03:03;8.60;99.90
20246;DHT22;10281;54.406;18.556;2024-02-23T02:05:30;8.60;99.90
20246;DHT22;10281;54.406;18.556;2024-02-23T02:07:57;8.60;99.90
20246;DHT22;10281;54.406;18.556;2024-02-23T02:10:26;8.60;99.90
20246;DHT22;10281;54.406;18.556;2024-02-23T02:12:53;8.60;99.90
20246;DHT22;10281;54.406;18.556;2024-02-23T02:15:20;8.60;99.90
20246;DHT22;10281;54.406;18.556;2024-02-23T02:17:48;8.60;99.90
20246;DHT22;10281;54.406;18.556;2024-02-23T02:20:14;8.60;99.90
20246;DHT22;10281;54.406;18.556;2024-02-23T02:22:43;8.60;99.90
20246;DHT22;10281;54.406;18.556;2024-02-23T02:25:10;8.60;99.90
20246;DHT22;10281;54.406;18.556;2024-02-23T02:27:36;8.60;99.90
20246;DHT22;10281;54.406;18.556;2024-02-23T02:30:03;8.70;99.90
20246;DHT22;10281;54.406;18.556;2024-02-23T02:32:30;8.70;99.90
20246;DHT22;10281;54.406;18.556;2024-02-23T02:34:56;8.70;99.90
20246;DHT22;10281;54.406;18.556;2024-02-23T02:37:23;8.70;99.90
20246;DHT22;10281;54.406;18.556;2024-02-23T02:39:50;8.60;99.90
20246;DHT22;10281;54.406;18.556;2024-02-23T02:42:16;8.60;99.90
20246;DHT22;10281;54.406;18.556;2024-02-23T02:44:43;8.60;99.90
20246;DHT22;10281;54.406;18.556;2024-02-23T02:47:09;8.60;99.90
20246;DHT22;10281;54.406;18.556;2024-02-23T02:49:36;8.60;99.90
20246;DHT22;10281;54.406;18.556;2024-02-23T02:52:02;8.60;99.90
20246;DHT22;10281;54.406;18.556;2024-02-23T02:54:29;8.60;99.90
20246;DHT22;10281;54.406;18.556;2024-02-23T02:56:56;8.60;99.90
20246;DHT22;10281;54.406;18.556;2024-02-23T02:59:23;8.60;99.90
20246;DHT22;10281;54.406;18.556;2024-02-23T03:01:50;8.60;99.90
20246;DHT22;10281;54.406;18.556;2024-02-23T03:04:16;8.60;99.90
20246;DHT22;10281;54.406;18.556;2024-02-23T03:06:43;8.60;99.90
20246;DHT22;10281;54.406;18.556;2024-02-23T03:09:10;8.60;99.90
20246;DHT22;10281;54.406;18.556;2024-02-23T03:11:36;8.60;99.90
20246;DHT22;10281;54.406;18.556;2024-02-23T03:14:03;8.60;99.90
20246;DHT22;10281;54.406;18.556;2024-02-23T03:16:30;8.70;99.90
20246;DHT22;10281;54.406;18.556;2024-02-23T03:18:57;8.70;99.90
20246;DHT22;10281;54.406;18.556;2024-02-23T03:21:24;8.60;99.90
20246;DHT22;10281;54.406;18.556;2024-02-23T03:23:50;8.70;99.90
20246;DHT22;10281;54.406;18.556;2024-02-23T03:26:17;8.70;99.90
20246;DHT22;10281;54.406;18.556;2024-02-23T03:28:44;8.70;99.90
20246;DHT22;10281;54.406;18.556;2024-02-23T03:31:10;8.70;99.90
20246;DHT22;10281;54.406;18.556;2024-02-23T03:33:37;8.70;99.90
20246;DHT22;10281;54.406;18.556;2024-02-23T03:36:04;8.70;99.90
20246;DHT22;10281;54.406;18.556;2024-02-23T03:38:31;8.70;99.90
20246;DHT22;10281;54.406;18.556;2024-02-23T03:40:59;8.70;99.90
20246;DHT22;10281;54.406;18.556;2024-02-23T03:43:27;8.70;99.90
20246;DHT22;10281;54.406;18.556;2024-02-23T03:45:53;8.70;99.90
20246;DHT22;10281;54.406;18.556;2024-02-23T03:48:20;8.70;99.90
20246;DHT22;10281;54.406;18.556;2024-02-23T03:50:47;8.70;99.90
20246;DHT22;10281;54.406;18.556;2024-02-23T03:53:13;8.70;99.90
20246;DHT22;10281;54.406;18.556;2024-02-23T03:55:40;8.70;99.90
20246;DHT22;10281;54.406;18.556;2024-02-23T03:58:06;8.80;99.90
20246;DHT22;10281;54.406;18.556;2024-02-23T04:00:33;8.80;99.90
20246;DHT22;10281;54.406;18.556;2024-02-23T04:03:00;8.80;99.90
20246;DHT22;10281;54.406;18.556;2024-02-23T04:05:26;8.70;99.90
20246;DHT22;10281;54.406;18.556;2024-02-23T04:07:53;8.80;99.90
20246;DHT22;10281;54.406;18.556;2024-02-23T04:10:21;8.80;99.90
20246;DHT22;10281;54.406;18.556;2024-02-23T04:12:47;8.80;99.90
20246;DHT22;10281;54.406;18.556;2024-02-23T04:15:14;8.70;99.90
20246;DHT22;10281;54.406;18.556;2024-02-23T04:17:40;8.80;99.90
20246;DHT22;10281;54.406;18.556;2024-02-23T04:20:08;8.80;99.90
20246;DHT22;10281;54.406;18.556;2024-02-23T04:22:36;8.80;99.90
20246;DHT22;10281;54.406;18.556;2024-02-23T04:25:04;8.80;99.90
20246;DHT22;10281;54.406;18.556;2024-02-23T04:27:31;8.80;99.90
20246;DHT22;10281;54.406;18.556;2024-02-23T04:29:57;8.80;99.90
20246;DHT22;10281;54.406;18.556;2024-02-23T04:32:24;8.80;99.90
20246;DHT22;10281;54.406;18.556;2024-02-23T04:34:50;8.80;99.90
20246;DHT22;10281;54.406;18.556;2024-02-23T04:37:17;8.80;99.90
20246;DHT22;10281;54.406;18.556;2024-02-23T04:39:44;8.90;99.90
20246;DHT22;10281;54.406;18.556;2024-02-23T04:42:11;8.90;99.90
20246;DHT22;10281;54.406;18.556;2024-02-23T04:44:37;8.90;99.90
20246;DHT22;10281;54.406;18.556;2024-02-23T04:47:04;8.90;99.90
20246;DHT22;10281;54.406;18.556;2024-02-23T04:49:31;8.90;99.90
20246;DHT22;10281;54.406;18.556;2024-02-23T04:51:58;9.00;99.90
20246;DHT22;10281;54.406;18.556;2024-02-23T04:54:25;9.00;99.90
20246;DHT22;10281;54.406;18.556;2024-02-23T04:56:51;9.00;99.90
20246;DHT22;10281;54.406;18.556;2024-02-23T04:59:18;9.00;99.90
20246;DHT22;10281;54.406;18.556;2024-02-23T05:01:45;9.00;99.90
20246;DHT22;10281;54.406;18.556;2024-02-23T05:04:11;9.00;99.90
20246;DHT22;10281;54.406;18.556;2024-02-23T05:06:38;9.00;99.90
20246;DHT22;10281;54.406;18.556;2024-02-23T05:09:05;9.10;99.90
20246;DHT22;10281;54.406;18.556;2024-02-23T05:11:34;9.10;99.90
20246;DHT22;10281;54.406;18.556;2024-02-23T05:14:00;9.10;99.90
20246;DHT22;10281;54.406;18.556;2024-02-23T05:16:27;9.10;99.90
20246;DHT22;10281;54.406;18.556;2024-02-23T05:18:54;9.20;99.90
20246;DHT22;10281;54.406;18.556;2024-02-23T05:21:21;9.20;99.90
20246;DHT22;10281;54.406;18.556;2024-02-23T05:23:47;9.20;99.90
20246;DHT22;10281;54.406;18.556;2024-02-23T05:26:14;9.20;99.90
20246;DHT22;10281;54.406;18.556;2024-02-23T05:28:40;9.20;99.90
20246;DHT22;10281;54.406;18.556;2024-02-23T05:31:09;9.20;99.90
20246;DHT22;10281;54.406;18.556;2024-02-23T05:33:36;9.30;99.90
20246;DHT22;10281;54.406;18.556;2024-02-23T05:36:05;9.30;99.90
20246;DHT22;10281;54.406;18.556;2024-02-23T05:38:32;9.30;99.90
20246;DHT22;10281;54.406;18.556;2024-02-23T05:40:58;9.30;99.90
20246;DHT22;10281;54.406;18.556;2024-02-23T05:43:25;9.30;99.90
20246;DHT22;10281;54.406;18.556;2024-02-23T05:45:51;9.30;99.90
20246;DHT22;10281;54.406;18.556;2024-02-23T05:48:18;9.30;99.90
20246;DHT22;10281;54.406;18.556;2024-02-23T05:50:45;9.30;99.90
20246;DHT22;10281;54.406;18.556;2024-02-23T05:53:12;9.30;99.90
20246;DHT22;10281;54.406;18.556;2024-02-23T05:55:38;9.40;99.90
20246;DHT22;10281;54.406;18.556;2024-02-23T05:58:05;9.40;99.90
20246;DHT22;10281;54.406;18.556;2024-02-23T06:00:32;9.40;99.90
20246;DHT22;10281;54.406;18.556;2024-02-23T06:02:58;9.40;99.90
20246;DHT22;10281;54.406;18.556;2024-02-23T06:05:25;9.40;99.90
20246;DHT22;10281;54.406;18.556;2024-02-23T06:07:52;9.40;99.90
20246;DHT22;10281;54.406;18.556;2024-02-23T06:10:18;9.40;99.90
20246;DHT22;10281;54.406;18.556;2024-02-23T06:12:45;9.40;99.90
20246;DHT22;10281;54.406;18.556;2024-02-23T06:15:11;9.30;99.90
20246;DHT22;10281;54.406;18.556;2024-02-23T06:17:38;9.30;99.90
20246;DHT22;10281;54.406;18.556;2024-02-23T06:20:07;9.30;99.90
20246;DHT22;10281;54.406;18.556;2024-02-23T06:22:34;9.30;99.90
20246;DHT22;10281;54.406;18.556;2024-02-23T06:25:02;9.30;99.90
20246;DHT22;10281;54.406;18.556;2024-02-23T06:27:28;9.30;99.90
20246;DHT22;10281;54.406;18.556;2024-02-23T06:29:56;9.30;99.90
20246;DHT22;10281;54.406;18.556;2024-02-23T06:32:22;9.30;99.90
20246;DHT22;10281;54.406;18.556;2024-02-23T06:34:49;9.40;99.90
20246;DHT22;10281;54.406;18.556;2024-02-23T06:37:15;9.40;99.90
20246;DHT22;10281;54.406;18.556;2024-02-23T06:39:42;9.40;99.90
20246;DHT22;10281;54.406;18.556;2024-02-23T06:42:10;9.40;99.90
20246;DHT22;10281;54.406;18.556;2024-02-23T06:44:36;9.50;99.90
20246;DHT22;10281;54.406;18.556;2024-02-23T06:47:03;9.50;99.90
20246;DHT22;10281;54.406;18.556;2024-02-23T06:49:30;9.50;99.90
20246;DHT22;10281;54.406;18.556;2024-02-23T06:51:56;9.50;99.90
20246;DHT22;10281;54.406;18.556;2024-02-23T06:54:23;9.60;99.90
20246;DHT22;10281;54.406;18.556;2024-02-23T06:56:50;9.60;99.90
20246;DHT22;10281;54.406;18.556;2024-02-23T06:59:16;9.60;99.90
20246;DHT22;10281;54.406;18.556;2024-02-23T07:01:49;9.60;99.90
20246;DHT22;10281;54.406;18.556;2024-02-23T07:04:16;9.60;99.90
20246;DHT22;10281;54.406;18.556;2024-02-23T07:06:43;9.70;99.90
20246;DHT22;10281;54.406;18.556;2024-02-23T07:09:10;9.70;99.90
20246;DHT22;10281;54.406;18.556;2024-02-23T07:11:38;9.70;99.90
20246;DHT22;10281;54.406;18.556;2024-02-23T07:14:04;9.80;99.90
20246;DHT22;10281;54.406;18.556;2024-02-23T07:16:31;9.80;99.90
20246;DHT22;10281;54.406;18.556;2024-02-23T07:18:58;9.90;99.90
20246;DHT22;10281;54.406;18.556;2024-02-23T07:21:25;9.90;99.90
20246;DHT22;10281;54.406;18.556;2024-02-23T07:23:52;10.00;99.90
20246;DHT22;10281;54.406;18.556;2024-02-23T07:26:18;10.00;99.90
20246;DHT22;10281;54.406;18.556;2024-02-23T07:28:47;10.10;99.90
20246;DHT22;10281;54.406;18.556;2024-02-23T07:31:15;10.10;99.90
20246;DHT22;10281;54.406;18.556;2024-02-23T07:33:42;10.10;99.90
20246;DHT22;10281;54.406;18.556;2024-02-23T07:36:14;10.20;99.90
20246;DHT22;10281;54.406;18.556;2024-02-23T07:38:41;10.20;99.90
20246;DHT22;10281;54.406;18.556;2024-02-23T07:41:10;10.30;99.90
20246;DHT22;10281;54.406;18.556;2024-02-23T07:43:37;10.30;99.90
20246;DHT22;10281;54.406;18.556;2024-02-23T07:46:03;10.30;99.90
20246;DHT22;10281;54.406;18.556;2024-02-23T07:48:31;10.30;99.90
20246;DHT22;10281;54.406;18.556;2024-02-23T07:50:57;10.40;99.90
20246;DHT22;10281;54.406;18.556;2024-02-23T07:53:24;10.40;99.90
20246;DHT22;10281;54.406;18.556;2024-02-23T07:55:50;10.40;99.90
20246;DHT22;10281;54.406;18.556;2024-02-23T07:58:17;10.40;99.90
20246;DHT22;10281;54.406;18.556;2024-02-23T08:00:45;10.40;99.90
20246;DHT22;10281;54.406;18.556;2024-02-23T08:03:12;10.50;99.90
20246;DHT22;10281;54.406;18.556;2024-02-23T08:05:39;10.50;99.90
20246;DHT22;10281;54.406;18.556;2024-02-23T08:08:06;10.50;99.90
20246;DHT22;10281;54.406;18.556;2024-02-23T08:10:33;10.50;99.90
20246;DHT22;10281;54.406;18.556;2024-02-23T08:12:59;10.60;99.90
20246;DHT22;10281;54.406;18.556;2024-02-23T08:15:26;10.60;99.90
20246;DHT22;10281;54.406;18.556;2024-02-23T08:17:53;10.60;99.90
20246;DHT22;10281;54.406;18.556;2024-02-23T08:20:19;10.60;99.90
20246;DHT22;10281;54.406;18.556;2024-02-23T08:22:47;10.70;99.90
20246;DHT22;10281;54.406;18.556;2024-02-23T08:25:13;10.70;99.90
20246;DHT22;10281;54.406;18.556;2024-02-23T08:27:42;10.70;99.90
20246;DHT22;10281;54.406;18.556;2024-02-23T08:30:09;10.70;99.90
20246;DHT22;10281;54.406;18.556;2024-02-23T08:32:37;10.70;99.90
20246;DHT22;10281;54.406;18.556;2024-02-23T08:35:03;10.80;99.90
20246;DHT22;10281;54.406;18.556;2024-02-23T08:37:30;10.80;99.90
20246;DHT22;10281;54.406;18.556;2024-02-23T08:39:57;10.90;99.90
20246;DHT22;10281;54.406;18.556;2024-02-23T08:42:23;10.90;99.90
20246;DHT22;10281;54.406;18.556;2024-02-23T08:44:50;10.90;99.90
20246;DHT22;10281;54.406;18.556;2024-02-23T08:47:17;10.90;99.90
20246;DHT22;10281;54.406;18.556;2024-02-23T08:49:43;10.90;99.90
20246;DHT22;10281;54.406;18.556;2024-02-23T08:52:10;10.90;99.90
20246;DHT22;10281;54.406;18.556;2024-02-23T08:54:37;10.90;99.90
20246;DHT22;10281;54.406;18.556;2024-02-23T08:57:05;10.90;99.90
20246;DHT22;10281;54.406;18.556;2024-02-23T08:59:32;10.90;99.90
20246;DHT22;10281;54.406;18.556;2024-02-23T09:01:58;10.90;99.90
20246;DHT22;10281;54.406;18.556;2024-02-23T09:04:25;10.90;99.90
20246;DHT22;10281;54.406;18.556;2024-02-23T09:06:52;11.00;99.90
20246;DHT22;10281;54.406;18.556;2024-02-23T09:09:19;11.00;99.90
20246;DHT22;10281;54.406;18.556;2024-02-23T09:11:46;10.90;99.90
20246;DHT22;10281;54.406;18.556;2024-02-23T09:14:13;10.90;99.90
20246;DHT22;10281;54.406;18.556;2024-02-23T09:16:39;10.90;99.90
20246;DHT22;10281;54.406;18.556;2024-02-23T09:19:06;10.80;99.90
20246;DHT22;10281;54.406;18.556;2024-02-23T09:21:32;10.80;99.90
20246;DHT22;10281;54.406;18.556;2024-02-23T09:23:59;10.90;99.90
20246;DHT22;10281;54.406;18.556;2024-02-23T09:26:26;10.90;99.90
20246;DHT22;10281;54.406;18.556;2024-02-23T09:28:52;10.90;99.90
20246;DHT22;10281;54.406;18.556;2024-02-23T09:31:19;10.90;99.90
20246;DHT22;10281;54.406;18.556;2024-02-23T09:33:46;10.90;99.90
20246;DHT22;10281;54.406;18.556;2024-02-23T09:36:14;10.90;99.90
20246;DHT22;10281;54.406;18.556;2024-02-23T09:38:41;10.90;99.90
20246;DHT22;10281;54.406;18.556;2024-02-23T09:41:11;10.90;99.90
20246;DHT22;10281;54.406;18.556;2024-02-23T09:43:38;10.90;99.90
20246;DHT22;10281;54.406;18.556;2024-02-23T09:46:05;10.90;99.90
20246;DHT22;10281;54.406;18.556;2024-02-23T09:48:33;11.00;99.90
20246;DHT22;10281;54.406;18.556;2024-02-23T09:51:01;11.10;99.90
20246;DHT22;10281;54.406;18.556;2024-02-23T09:53:28;11.20;99.90
20246;DHT22;10281;54.406;18.556;2024-02-23T09:55:56;11.10;99.90
20246;DHT22;10281;54.406;18.556;2024-02-23T09:58:24;11.10;99.90
20246;DHT22;10281;54.406;18.556;2024-02-23T10:00:52;11.10;99.90
20246;DHT22;10281;54.406;18.556;2024-02-23T10:03:20;11.10;99.90
20246;DHT22;10281;54.406;18.556;2024-02-23T10:05:49;11.20;99.90
20246;DHT22;10281;54.406;18.556;2024-02-23T10:08:15;11.20;99.90
20246;DHT22;10281;54.406;18.556;2024-02-23T10:10:45;11.20;99.90
20246;DHT22;10281;54.406;18.556;2024-02-23T10:13:22;11.20;99.90
20246;DHT22;10281;54.406;18.556;2024-02-23T10:15:50;11.20;99.90
20246;DHT22;10281;54.406;18.556;2024-02-23T10:18:18;11.30;99.90
20246;DHT22;10281;54.406;18.556;2024-02-23T10:20:47;11.30;99.90
20246;DHT22;10281;54.406;18.556;2024-02-23T10:23:13;11.20;99.90
20246;DHT22;10281;54.406;18.556;2024-02-23T10:25:40;11.30;99.90
20246;DHT22;10281;54.406;18.556;2024-02-23T10:28:07;11.20;99.90
20246;DHT22;10281;54.406;18.556;2024-02-23T10:30:37;11.20;99.90
20246;DHT22;10281;54.406;18.556;2024-02-23T10:33:05;11.20;99.90
20246;DHT22;10281;54.406;18.556;2024-02-23T10:35:32;11.20;99.90
20246;DHT22;10281;54.406;18.556;2024-02-23T10:38:05;11.20;99.90
20246;DHT22;10281;54.406;18.556;2024-02-23T10:40:38;11.20;99.90
20246;DHT22;10281;54.406;18.556;2024-02-23T10:43:12;11.30;99.90
20246;DHT22;10281;54.406;18.556;2024-02-23T10:45:39;11.40;99.90
20246;DHT22;10281;54.406;18.556;2024-02-23T10:48:08;11.30;99.90
20246;DHT22;10281;54.406;18.556;2024-02-23T10:50:36;11.30;99.90
20246;DHT22;10281;54.406;18.556;2024-02-23T10:53:05;11.30;99.90
20246;DHT22;10281;54.406;18.556;2024-02-23T10:55:37;11.40;99.90
20246;DHT22;10281;54.406;18.556;2024-02-23T10:58:06;11.40;99.90
20246;DHT22;10281;54.406;18.556;2024-02-23T11:00:35;11.50;99.90
20246;DHT22;10281;54.406;18.556;2024-02-23T11:03:03;11.50;99.90
20246;DHT22;10281;54.406;18.556;2024-02-23T11:05:33;11.70;99.90
20246;DHT22;10281;54.406;18.556;2024-02-23T11:08:00;11.70;99.90
20246;DHT22;10281;54.406;18.556;2024-02-23T11:10:27;11.60;99.90
20246;DHT22;10281;54.406;18.556;2024-02-23T11:12:58;11.70;99.90
20246;DHT22;10281;54.406;18.556;2024-02-23T11:15:27;11.70;99.90
20246;DHT22;10281;54.406;18.556;2024-02-23T11:17:54;11.60;99.90
20246;DHT22;10281;54.406;18.556;2024-02-23T11:20:21;11.60;99.90
20246;DHT22;10281;54.406;18.556;2024-02-23T11:22:52;11.60;99.90
20246;DHT22;10281;54.406;18.556;2024-02-23T11:25:20;11.60;99.90
20246;DHT22;10281;54.406;18.556;2024-02-23T11:27:50;11.50;99.90
20246;DHT22;10281;54.406;18.556;2024-02-23T11:30:17;11.50;99.90
20246;DHT22;10281;54.406;18.556;2024-02-23T11:32:46;11.40;99.90
20246;DHT22;10281;54.406;18.556;2024-02-23T11:35:15;11.50;99.90
20246;DHT22;10281;54.406;18.556;2024-02-23T11:37:54;11.50;99.90
20246;DHT22;10281;54.406;18.556;2024-02-23T11:40:23;11.50;99.90
20246;DHT22;10281;54.406;18.556;2024-02-23T11:42:51;11.50;99.90
20246;DHT22;10281;54.406;18.556;2024-02-23T11:45:18;11.50;99.90
20246;DHT22;10281;54.406;18.556;2024-02-23T11:47:45;11.60;99.90
20246;DHT22;10281;54.406;18.556;2024-02-23T11:50:11;11.60;99.90
20246;DHT22;10281;54.406;18.556;2024-02-23T11:52:38;11.60;99.90
20246;DHT22;10281;54.406;18.556;2024-02-23T11:55:06;11.60;99.90
20246;DHT22;10281;54.406;18.556;2024-02-23T11:57:38;11.80;99.90
20246;DHT22;10281;54.406;18.556;2024-02-23T12:00:05;11.90;99.90
20246;DHT22;10281;54.406;18.556;2024-02-23T12:02:34;11.80;99.90
20246;DHT22;10281;54.406;18.556;2024-02-23T12:05:02;11.80;99.90
20246;DHT22;10281;54.406;18.556;2024-02-23T12:07:29;11.80;99.90
20246;DHT22;10281;54.406;18.556;2024-02-23T12:09:57;11.80;99.90
20246;DHT22;10281;54.406;18.556;2024-02-23T12:12:25;11.80;99.90
20246;DHT22;10281;54.406;18.556;2024-02-23T12:14:53;11.80;99.90
20246;DHT22;10281;54.406;18.556;2024-02-23T12:17:19;11.80;99.90
20246;DHT22;10281;54.406;18.556;2024-02-23T12:19:46;11.80;99.90
20246;DHT22;10281;54.406;18.556;2024-02-23T12:22:12;11.80;99.90
20246;DHT22;10281;54.406;18.556;2024-02-23T12:24:41;11.80;99.90
20246;DHT22;10281;54.406;18.556;2024-02-23T12:27:08;11.80;99.90
20246;DHT22;10281;54.406;18.556;2024-02-23T12:29:35;11.80;99.90
20246;DHT22;10281;54.406;18.556;2024-02-23T12:32:04;11.70;99.90
20246;DHT22;10281;54.406;18.556;2024-02-23T12:34:31;11.70;99.90
20246;DHT22;10281;54.406;18.556;2024-02-23T12:36:58;11.70;99.90
20246;DHT22;10281;54.406;18.556;2024-02-23T12:39:25;11.80;99.90
20246;DHT22;10281;54.406;18.556;2024-02-23T12:41:52;11.90;99.90
20246;DHT22;10281;54.406;18.556;2024-02-23T12:44:19;11.90;99.90
20246;DHT22;10281;54.406;18.556;2024-02-23T12:46:46;11.90;99.90
20246;DHT22;10281;54.406;18.556;2024-02-23T12:49:13;11.90;99.90
20246;DHT22;10281;54.406;18.556;2024-02-23T12:51:40;11.90;99.90
20246;DHT22;10281;54.406;18.556;2024-02-23T12:54:06;11.90;99.90
20246;DHT22;10281;54.406;18.556;2024-02-23T12:56:33;12.00;99.90
20246;DHT22;10281;54.406;18.556;2024-02-23T12:59:00;11.90;99.90
20246;DHT22;10281;54.406;18.556;2024-02-23T13:01:26;11.90;99.90
20246;DHT22;10281;54.406;18.556;2024-02-23T13:03:53;11.80;99.90
20246;DHT22;10281;54.406;18.556;2024-02-23T13:06:20;11.80;99.90
20246;DHT22;10281;54.406;18.556;2024-02-23T13:08:46;11.80;99.90
20246;DHT22;10281;54.406;18.556;2024-02-23T13:11:13;11.90;99.90
20246;DHT22;10281;54.406;18.556;2024-02-23T13:13:40;11.90;99.90
20246;DHT22;10281;54.406;18.556;2024-02-23T13:16:06;11.80;99.90
20246;DHT22;10281;54.406;18.556;2024-02-23T13:18:34;11.80;99.90
20246;DHT22;10281;54.406;18.556;2024-02-23T13:21:01;11.80;99.90
20246;DHT22;10281;54.406;18.556;2024-02-23T13:23:29;11.80;99.90
20246;DHT22;10281;54.406;18.556;2024-02-23T13:25:55;11.80;99.90
20246;DHT22;10281;54.406;18.556;2024-02-23T13:28:22;11.70;99.90
20246;DHT22;10281;54.406;18.556;2024-02-23T13:30:49;11.80;99.90
20246;DHT22;10281;54.406;18.556;2024-02-23T13:33:15;11.80;99.90
20246;DHT22;10281;54.406;18.556;2024-02-23T13:35:44;11.80;99.90
20246;DHT22;10281;54.406;18.556;2024-02-23T13:38:10;11.80;99.90
20246;DHT22;10281;54.406;18.556;2024-02-23T13:40:37;11.90;99.90
20246;DHT22;10281;54.406;18.556;2024-02-23T13:43:04;11.90;99.90
20246;DHT22;10281;54.406;18.556;2024-02-23T13:45:30;12.00;99.90
20246;DHT22;10281;54.406;18.556;2024-02-23T13:47:59;11.90;99.90
20246;DHT22;10281;54.406;18.556;2024-02-23T13:50:27;11.90;99.90
20246;DHT22;10281;54.406;18.556;2024-02-23T13:52:54;11.90;99.90
20246;DHT22;10281;54.406;18.556;2024-02-23T13:55:20;11.90;99.90
20246;DHT22;10281;54.406;18.556;2024-02-23T13:57:48;11.90;99.90
20246;DHT22;10281;54.406;18.556;2024-02-23T14:00:17;11.80;99.90
20246;DHT22;10281;54.406;18.556;2024-02-23T14:02:44;11.90;99.90
20246;DHT22;10281;54.406;18.556;2024-02-23T14:05:12;11.90;99.90
20246;DHT22;10281;54.406;18.556;2024-02-23T14:07:39;12.00;99.90
20246;DHT22;10281;54.406;18.556;2024-02-23T14:10:07;11.90;99.90
20246;DHT22;10281;54.406;18.556;2024-02-23T14:12:34;11.90;99.90
20246;DHT22;10281;54.406;18.556;2024-02-23T14:15:01;11.90;99.90
20246;DHT22;10281;54.406;18.556;2024-02-23T14:17:27;11.80;99.90
20246;DHT22;10281;54.406;18.556;2024-02-23T14:19:54;11.70;99.90
20246;DHT22;10281;54.406;18.556;2024-02-23T14:22:21;11.60;99.90
20246;DHT22;10281;54.406;18.556;2024-02-23T14:24:47;11.50;99.90
20246;DHT22;10281;54.406;18.556;2024-02-23T14:27:14;11.40;99.90
20246;DHT22;10281;54.406;18.556;2024-02-23T14:29:41;11.50;99.90
20246;DHT22;10281;54.406;18.556;2024-02-23T14:32:07;11.40;99.90
20246;DHT22;10281;54.406;18.556;2024-02-23T14:34:34;11.30;99.90
20246;DHT22;10281;54.406;18.556;2024-02-23T14:37:00;11.40;99.90
20246;DHT22;10281;54.406;18.556;2024-02-23T14:39:27;11.30;99.90
20246;DHT22;10281;54.406;18.556;2024-02-23T14:41:54;11.40;99.90
20246;DHT22;10281;54.406;18.556;2024-02-23T14:44:20;11.40;99.90
20246;DHT22;10281;54.406;18.556;2024-02-23T14:46:47;11.40;99.90
20246;DHT22;10281;54.406;18.556;2024-02-23T14:49:14;11.30;99.90
20246;DHT22;10281;54.406;18.556;2024-02-23T14:51:40;11.30;99.90
20246;DHT22;10281;54.406;18.556;2024-02-23T14:54:09;11.30;99.90
20246;DHT22;10281;54.406;18.556;2024-02-23T14:56:35;11.30;99.90
20246;DHT22;10281;54.406;18.556;2024-02-23T14:59:03;11.30;99.90
20246;DHT22;10281;54.406;18.556;2024-02-23T15:01:29;11.20;99.90
20246;DHT22;10281;54.406;18.556;2024-02-23T15:03:56;11.10;99.90
20246;DHT22;10281;54.406;18.556;2024-02-23T15:06:23;11.20;99.90
20246;DHT22;10281;54.406;18.556;2024-02-23T15:08:50;11.20;99.90
20246;DHT22;10281;54.406;18.556;2024-02-23T15:11:16;11.20;99.90
20246;DHT22;10281;54.406;18.556;2024-02-23T15:13:43;11.10;99.90
20246;DHT22;10281;54.406;18.556;2024-02-23T15:16:10;11.00;99.90
20246;DHT22;10281;54.406;18.556;2024-02-23T15:18:37;11.00;99.90
20246;DHT22;10281;54.406;18.556;2024-02-23T15:21:04;10.90;99.90